sensor_id;sensor_type;location;lat;lon;timestamp;pressure;altitude;pressure_sealevel;temperature;humidity
25658;BME280;13517;59.320;18.042;2022-09-19T00:01:18;99874.25;;;9.26;100.00
25658;BME280;13517;59.320;18.042;2022-09-19T00:03:46;99858.66;;;9.19;100.00
25658;BME280;13517;59.320;18.042;2022-09-19T00:06:14;99875.88;;;9.29;100.00
25658;BME280;13517;59.320;18.042;2022-09-19T00:08:41;99886.41;;;9.32;100.00
25658;BME280;13517;59.320;18.042;2022-09-19T00:11:11;99878.00;;;9.37;100.00
25658;BME280;13517;59.320;18.042;2022-09-19T00:13:38;99845.47;;;9.27;100.00
25658;BME280;13517;59.320;18.042;2022-09-19T00:16:06;99871.31;;;9.43;100.00
25658;BME280;13517;59.320;18.042;2022-09-19T00:18:32;99874.22;;;9.39;100.00
25658;BME280;13517;59.320;18.042;2022-09-19T00:20:57;99857.75;;;9.31;100.00
25658;BME280;13517;59.320;18.042;2022-09-19T00:23:25;99868.72;;;9.41;100.00
25658;BME280;13517;59.320;18.042;2022-09-19T00:26:11;99864.16;;;9.42;100.00
25658;BME280;13517;59.320;18.042;2022-09-19T00:28:37;99854.31;;;9.29;100.00
25658;BME280;13517;59.320;18.042;2022-09-19T00:31:04;99850.28;;;9.35;100.00
25658;BME280;13517;59.320;18.042;2022-09-19T00:33:32;99869.34;;;9.45;100.00
25658;BME280;13517;59.320;18.042;2022-09-19T00:35:59;99873.41;;;9.50;100.00
25658;BME280;13517;59.320;18.042;2022-09-19T00:38:30;99867.91;;;9.52;100.00
25658;BME280;13517;59.320;18.042;2022-09-19T00:40:57;99852.47;;;9.54;100.00
25658;BME280;13517;59.320;18.042;2022-09-19T00:43:24;99853.22;;;9.56;100.00
25658;BME280;13517;59.320;18.042;2022-09-19T00:45:51;99865.75;;;9.57;100.00
25658;BME280;13517;59.320;18.042;2022-09-19T00:48:19;99847.09;;;9.54;100.00
25658;BME280;13517;59.320;18.042;2022-09-19T00:50:52;99864.00;;;9.56;100.00
25658;BME280;13517;59.320;18.042;2022-09-19T00:53:22;99866.69;;;9.56;100.00
25658;BME280;13517;59.320;18.042;2022-09-19T00:55:53;99850.53;;;9.56;100.00
25658;BME280;13517;59.320;18.042;2022-09-19T00:58:24;99870.16;;;9.58;100.00
25658;BME280;13517;59.320;18.042;2022-09-19T01:00:51;99859.38;;;9.58;100.00
25658;BME280;13517;59.320;18.042;2022-09-19T01:03:16;99858.41;;;9.59;100.00
25658;BME280;13517;59.320;18.042;2022-09-19T01:05:47;99845.63;;;9.50;100.00
25658;BME280;13517;59.320;18.042;2022-09-19T01:11:37;99854.19;;;9.55;100.00
25658;BME280;13517;59.320;18.042;2022-09-19T01:16:55;99848.59;;;9.58;100.00
25658;BME280;13517;59.320;18.042;2022-09-19T01:27:49;99836.56;;;9.51;100.00
25658;BME280;13517;59.320;18.042;2022-09-19T01:30:15;99844.66;;;9.62;100.00
25658;BME280;13517;59.320;18.042;2022-09-19T01:35:12;99851.56;;;9.66;100.00
25658;BME280;13517;59.320;18.042;2022-09-19T01:37:43;99855.97;;;9.67;100.00
25658;BME280;13517;59.320;18.042;2022-09-19T01:40:12;99840.53;;;9.70;100.00
25658;BME280;13517;59.320;18.042;2022-09-19T01:42:52;99841.00;;;9.63;100.00
25658;BME280;13517;59.320;18.042;2022-09-19T01:45:22;99840.84;;;9.53;100.00
25658;BME280;13517;59.320;18.042;2022-09-19T01:48:00;99827.06;;;9.45;100.00
25658;BME280;13517;59.320;18.042;2022-09-19T01:59:07;99838.78;;;9.33;100.00
25658;BME280;13517;59.320;18.042;2022-09-19T02:02:00;99805.97;;;9.15;100.00
25658;BME280;13517;59.320;18.042;2022-09-19T02:04:32;99858.03;;;9.39;100.00
25658;BME280;13517;59.320;18.042;2022-09-19T02:07:19;99811.13;;;9.18;100.00
25658;BME280;13517;59.320;18.042;2022-09-19T02:10:00;99834.66;;;9.40;100.00
25658;BME280;13517;59.320;18.042;2022-09-19T02:12:29;99829.56;;;9.35;100.00
25658;BME280;13517;59.320;18.042;2022-09-19T02:14:58;99835.03;;;9.47;100.00
25658;BME280;13517;59.320;18.042;2022-09-19T02:17:52;99836.47;;;9.39;100.00
25658;BME280;13517;59.320;18.042;2022-09-19T02:20:42;99845.63;;;9.50;100.00
25658;BME280;13517;59.320;18.042;2022-09-19T02:23:16;99843.03;;;9.48;100.00
25658;BME280;13517;59.320;18.042;2022-09-19T02:25:45;99850.75;;;9.53;100.00
25658;BME280;13517;59.320;18.042;2022-09-19T02:28:18;99845.13;;;9.56;100.00
25658;BME280;13517;59.320;18.042;2022-09-19T02:30:47;99793.53;;;9.25;100.00
25658;BME280;13517;59.320;18.042;2022-09-19T02:33:13;99844.22;;;9.44;100.00
25658;BME280;13517;59.320;18.042;2022-09-19T02:38:38;99819.56;;;9.37;100.00
25658;BME280;13517;59.320;18.042;2022-09-19T02:41:46;99839.16;;;9.39;100.00
25658;BME280;13517;59.320;18.042;2022-09-19T02:48:03;99858.13;;;9.51;100.00
25658;BME280;13517;59.320;18.042;2022-09-19T02:52:32;99864.00;;;9.56;100.00
25658;BME280;13517;59.320;18.042;2022-09-19T02:57:32;99831.72;;;9.43;100.00
25658;BME280;13517;59.320;18.042;2022-09-19T03:00:00;99823.53;;;9.45;100.00
25658;BME280;13517;59.320;18.042;2022-09-19T03:02:31;99857.84;;;9.43;100.00
25658;BME280;13517;59.320;18.042;2022-09-19T03:05:02;99843.59;;;9.40;100.00
25658;BME280;13517;59.320;18.042;2022-09-19T03:07:33;99846.97;;;9.31;100.00
25658;BME280;13517;59.320;18.042;2022-09-19T03:10:17;99861.25;;;9.45;100.00
25658;BME280;13517;59.320;18.042;2022-09-19T03:12:52;99841.97;;;9.38;100.00
25658;BME280;13517;59.320;18.042;2022-09-19T03:15:31;99875.59;;;9.45;100.00
25658;BME280;13517;59.320;18.042;2022-09-19T03:18:06;99858.56;;;9.45;100.00
25658;BME280;13517;59.320;18.042;2022-09-19T03:20:37;99866.13;;;9.39;100.00
25658;BME280;13517;59.320;18.042;2022-09-19T03:23:05;99855.69;;;9.35;100.00
25658;BME280;13517;59.320;18.042;2022-09-19T03:25:30;99853.19;;;9.45;100.00
25658;BME280;13517;59.320;18.042;2022-09-19T03:27:56;99855.97;;;9.43;100.00
25658;BME280;13517;59.320;18.042;2022-09-19T03:30:22;99843.28;;;9.32;100.00
25658;BME280;13517;59.320;18.042;2022-09-19T03:32:47;99865.44;;;9.49;100.00
25658;BME280;13517;59.320;18.042;2022-09-19T03:35:13;99858.03;;;9.39;100.00
25658;BME280;13517;59.320;18.042;2022-09-19T03:37:40;99861.47;;;9.42;100.00
25658;BME280;13517;59.320;18.042;2022-09-19T03:40:06;99853.09;;;9.33;100.00
25658;BME280;13517;59.320;18.042;2022-09-19T03:42:32;99872.25;;;9.42;100.00
25658;BME280;13517;59.320;18.042;2022-09-19T03:45:00;99858.50;;;9.33;100.00
25658;BME280;13517;59.320;18.042;2022-09-19T03:47:25;99850.00;;;9.26;100.00
25658;BME280;13517;59.320;18.042;2022-09-19T03:49:51;99869.06;;;9.36;100.00
25658;BME280;13517;59.320;18.042;2022-09-19T03:52:17;99894.44;;;9.45;100.00
25658;BME280;13517;59.320;18.042;2022-09-19T03:54:42;99873.69;;;9.34;100.00
25658;BME280;13517;59.320;18.042;2022-09-19T03:57:10;99881.44;;;9.39;100.00
25658;BME280;13517;59.320;18.042;2022-09-19T03:59:35;99871.75;;;9.36;100.00
25658;BME280;13517;59.320;18.042;2022-09-19T04:02:04;99874.56;;;9.35;100.00
25658;BME280;13517;59.320;18.042;2022-09-19T04:04:29;99867.44;;;9.34;100.00
25658;BME280;13517;59.320;18.042;2022-09-19T04:06:55;99880.78;;;9.35;100.00
25658;BME280;13517;59.320;18.042;2022-09-19T04:09:20;99866.03;;;9.28;100.00
25658;BME280;13517;59.320;18.042;2022-09-19T04:11:45;99883.81;;;9.44;100.00
25658;BME280;13517;59.320;18.042;2022-09-19T04:14:11;99873.69;;;9.34;100.00
25658;BME280;13517;59.320;18.042;2022-09-19T04:16:37;99879.50;;;9.41;100.00
25658;BME280;13517;59.320;18.042;2022-09-19T04:19:03;99896.31;;;9.45;100.00
25658;BME280;13517;59.320;18.042;2022-09-19T04:21:36;99876.28;;;9.36;100.00
25658;BME280;13517;59.320;18.042;2022-09-19T04:24:01;99869.28;;;9.33;100.00
25658;BME280;13517;59.320;18.042;2022-09-19T04:26:27;99874.09;;;9.41;100.00
25658;BME280;13517;59.320;18.042;2022-09-19T04:28:52;99892.41;;;9.49;100.00
25658;BME280;13517;59.320;18.042;2022-09-19T04:31:18;99891.66;;;9.47;100.00
25658;BME280;13517;59.320;18.042;2022-09-19T04:33:43;99887.69;;;9.39;100.00
25658;BME280;13517;59.320;18.042;2022-09-19T04:36:09;99888.75;;;9.50;100.00
25658;BME280;13517;59.320;18.042;2022-09-19T04:38:35;99902.88;;;9.53;100.00
25658;BME280;13517;59.320;18.042;2022-09-19T04:41:02;99881.59;;;9.49;100.00
25658;BME280;13517;59.320;18.042;2022-09-19T04:43:28;99897.56;;;9.52;100.00
25658;BME280;13517;59.320;18.042;2022-09-19T04:45:55;99897.78;;;9.49;100.00
25658;BME280;13517;59.320;18.042;2022-09-19T04:48:22;99898.03;;;9.46;100.00
25658;BME280;13517;59.320;18.042;2022-09-19T04:50:49;99865.84;;;9.31;100.00
25658;BME280;13517;59.320;18.042;2022-09-19T04:53:20;99873.28;;;9.27;100.00
25658;BME280;13517;59.320;18.042;2022-09-19T04:55:49;99902.44;;;9.47;100.00
25658;BME280;13517;59.320;18.042;2022-09-19T04:58:16;99886.38;;;9.45;100.00
25658;BME280;13517;59.320;18.042;2022-09-19T05:00:50;99878.19;;;9.47;100.00
25658;BME280;13517;59.320;18.042;2022-09-19T05:03:16;99882.09;;;9.43;100.00
25658;BME280;13517;59.320;18.042;2022-09-19T05:05:44;99906.66;;;9.51;100.00
25658;BME280;13517;59.320;18.042;2022-09-19T05:08:14;99901.25;;;9.51;100.00
25658;BME280;13517;59.320;18.042;2022-09-19T05:10:44;99903.19;;;9.49;100.00
25658;BME280;13517;59.320;18.042;2022-09-19T05:13:11;99898.22;;;9.56;100.00
25658;BME280;13517;59.320;18.042;2022-09-19T05:15:36;99901.53;;;9.59;100.00
25658;BME280;13517;59.320;18.042;2022-09-19T05:18:04;99912.66;;;9.54;100.00
25658;BME280;13517;59.320;18.042;2022-09-19T05:20:29;99908.00;;;9.57;100.00
25658;BME280;13517;59.320;18.042;2022-09-19T05:22:56;99905.09;;;9.60;100.00
25658;BME280;13517;59.320;18.042;2022-09-19T05:25:26;99906.84;;;9.61;100.00
25658;BME280;13517;59.320;18.042;2022-09-19T05:27:51;99879.91;;;9.48;100.00
25658;BME280;13517;59.320;18.042;2022-09-19T05:30:20;99898.09;;;9.57;100.00
25658;BME280;13517;59.320;18.042;2022-09-19T05:32:48;99903.72;;;9.54;100.00
25658;BME280;13517;59.320;18.042;2022-09-19T05:35:13;99902.72;;;9.55;100.00
25658;BME280;13517;59.320;18.042;2022-09-19T05:37:41;99890.56;;;9.49;100.00
25658;BME280;13517;59.320;18.042;2022-09-19T05:40:07;99906.34;;;9.67;100.00
25658;BME280;13517;59.320;18.042;2022-09-19T05:42:32;99897.34;;;9.55;100.00
25658;BME280;13517;59.320;18.042;2022-09-19T05:44:59;99893.44;;;9.59;100.00
25658;BME280;13517;59.320;18.042;2022-09-19T05:47:25;99908.31;;;9.65;100.00
25658;BME280;13517;59.320;18.042;2022-09-19T05:49:50;99922.84;;;9.75;100.00
25658;BME280;13517;59.320;18.042;2022-09-19T05:52:16;99912.63;;;9.67;100.00
25658;BME280;13517;59.320;18.042;2022-09-19T05:54:59;99916.06;;;9.70;100.00
25658;BME280;13517;59.320;18.042;2022-09-19T05:57:25;99915.22;;;9.69;100.00
25658;BME280;13517;59.320;18.042;2022-09-19T05:59:50;99910.00;;;9.79;100.00
25658;BME280;13517;59.320;18.042;2022-09-19T06:02:15;99900.50;;;9.73;100.00
25658;BME280;13517;59.320;18.042;2022-09-19T06:04:45;99908.66;;;9.85;100.00
25658;BME280;13517;59.320;18.042;2022-09-19T06:07:10;99906.41;;;9.78;100.00
25658;BME280;13517;59.320;18.042;2022-09-19T06:09:36;99911.59;;;9.81;100.00
25658;BME280;13517;59.320;18.042;2022-09-19T06:12:02;99909.47;;;9.74;100.00
25658;BME280;13517;59.320;18.042;2022-09-19T06:14:28;99883.69;;;9.70;100.00
25658;BME280;13517;59.320;18.042;2022-09-19T06:16:53;99921.91;;;9.88;100.00
25658;BME280;13517;59.320;18.042;2022-09-19T06:19:19;99915.56;;;9.89;100.00
25658;BME280;13517;59.320;18.042;2022-09-19T06:21:44;99923.97;;;9.84;100.00
25658;BME280;13517;59.320;18.042;2022-09-19T06:24:10;99909.00;;;9.80;100.00
25658;BME280;13517;59.320;18.042;2022-09-19T06:26:35;99939.50;;;9.93;100.00
25658;BME280;13517;59.320;18.042;2022-09-19T06:29:02;99929.78;;;9.91;100.00
25658;BME280;13517;59.320;18.042;2022-09-19T06:31:28;99928.97;;;10.02;100.00
25658;BME280;13517;59.320;18.042;2022-09-19T06:33:54;99910.38;;;9.86;100.00
25658;BME280;13517;59.320;18.042;2022-09-19T06:36:19;99949.69;;;10.01;100.00
25658;BME280;13517;59.320;18.042;2022-09-19T06:38:45;99929.53;;;9.94;100.00
25658;BME280;13517;59.320;18.042;2022-09-19T06:41:10;99959.91;;;10.09;100.00
25658;BME280;13517;59.320;18.042;2022-09-19T06:43:36;99956.97;;;10.12;100.00
25658;BME280;13517;59.320;18.042;2022-09-19T06:46:02;99952.44;;;10.13;100.00
25658;BME280;13517;59.320;18.042;2022-09-19T06:48:28;99942.50;;;10.13;100.00
25658;BME280;13517;59.320;18.042;2022-09-19T06:50:53;99952.38;;;10.26;100.00
25658;BME280;13517;59.320;18.042;2022-09-19T06:53:19;99953.34;;;10.25;100.00
25658;BME280;13517;59.320;18.042;2022-09-19T06:55:44;99952.88;;;10.31;100.00
25658;BME280;13517;59.320;18.042;2022-09-19T06:58:11;99952.88;;;10.31;100.00
25658;BME280;13517;59.320;18.042;2022-09-19T07:00:38;99962.00;;;10.41;100.00
25658;BME280;13517;59.320;18.042;2022-09-19T07:03:13;99948.47;;;10.30;100.00
25658;BME280;13517;59.320;18.042;2022-09-19T07:05:42;99951.44;;;10.38;100.00
25658;BME280;13517;59.320;18.042;2022-09-19T07:08:11;99964.66;;;10.54;100.00
25658;BME280;13517;59.320;18.042;2022-09-19T07:10:39;99959.63;;;10.49;100.00
25658;BME280;13517;59.320;18.042;2022-09-19T07:13:05;99940.22;;;10.56;100.00
25658;BME280;13517;59.320;18.042;2022-09-19T07:15:33;99975.78;;;10.74;100.00
25658;BME280;13517;59.320;18.042;2022-09-19T07:17:59;99950.34;;;10.65;100.00
25658;BME280;13517;59.320;18.042;2022-09-19T07:20:26;99975.53;;;10.77;100.00
25658;BME280;13517;59.320;18.042;2022-09-19T07:23:06;99992.47;;;10.79;100.00
25658;BME280;13517;59.320;18.042;2022-09-19T07:25:33;99956.97;;;10.72;100.00
25658;BME280;13517;59.320;18.042;2022-09-19T07:28:03;99973.31;;;10.82;100.00
25658;BME280;13517;59.320;18.042;2022-09-19T07:30:29;99985.59;;;10.75;100.00
25658;BME280;13517;59.320;18.042;2022-09-19T07:32:57;100002.91;;;10.84;100.00
25658;BME280;13517;59.320;18.042;2022-09-19T07:35:27;99978.47;;;10.74;100.00
25658;BME280;13517;59.320;18.042;2022-09-19T07:37:53;99976.88;;;10.83;100.00
25658;BME280;13517;59.320;18.042;2022-09-19T07:40:18;99996.28;;;10.88;100.00
25658;BME280;13517;59.320;18.042;2022-09-19T07:42:44;99981.69;;;10.90;100.00
25658;BME280;13517;59.320;18.042;2022-09-19T07:45:09;99993.41;;;11.14;100.00
25658;BME280;13517;59.320;18.042;2022-09-19T07:47:41;100048.44;;;11.13;100.00
25658;BME280;13517;59.320;18.042;2022-09-19T07:50:07;99996.22;;;11.12;100.00
25658;BME280;13517;59.320;18.042;2022-09-19T07:52:33;99955.66;;;11.01;100.00
25658;BME280;13517;59.320;18.042;2022-09-19T07:54:58;100032.44;;;11.10;100.00
25658;BME280;13517;59.320;18.042;2022-09-19T07:57:24;100012.31;;;11.14;100.00
25658;BME280;13517;59.320;18.042;2022-09-19T07:59:49;99998.28;;;11.09;100.00
25658;BME280;13517;59.320;18.042;2022-09-19T08:02:15;100004.94;;;11.16;100.00
25658;BME280;13517;59.320;18.042;2022-09-19T08:04:41;99994.97;;;11.05;100.00
25658;BME280;13517;59.320;18.042;2022-09-19T08:07:07;100009.22;;;11.07;100.00
25658;BME280;13517;59.320;18.042;2022-09-19T08:09:33;100017.72;;;11.14;100.00
25658;BME280;13517;59.320;18.042;2022-09-19T08:12:05;100009.84;;;11.11;100.00
25658;BME280;13517;59.320;18.042;2022-09-19T08:14:31;100000.50;;;10.92;100.00
25658;BME280;13517;59.320;18.042;2022-09-19T08:16:57;100014.88;;;11.04;100.00
25658;BME280;13517;59.320;18.042;2022-09-19T08:19:23;100021.13;;;11.04;100.00
25658;BME280;13517;59.320;18.042;2022-09-19T08:21:48;100031.94;;;11.04;100.00
25658;BME280;13517;59.320;18.042;2022-09-19T08:24:14;100024.81;;;11.03;100.00
25658;BME280;13517;59.320;18.042;2022-09-19T08:26:40;100020.91;;;11.08;100.00
25658;BME280;13517;59.320;18.042;2022-09-19T08:29:07;100018.94;;;11.10;100.00
25658;BME280;13517;59.320;18.042;2022-09-19T08:31:33;100047.69;;;11.11;100.00
25658;BME280;13517;59.320;18.042;2022-09-19T08:33:58;100014.53;;;11.20;100.00
25658;BME280;13517;59.320;18.042;2022-09-19T08:36:24;100040.09;;;11.27;100.00
25658;BME280;13517;59.320;18.042;2022-09-19T08:38:50;100044.53;;;11.28;100.00
25658;BME280;13517;59.320;18.042;2022-09-19T08:41:33;100063.94;;;11.34;100.00
25658;BME280;13517;59.320;18.042;2022-09-19T08:44:24;100038.75;;;11.33;100.00
25658;BME280;13517;59.320;18.042;2022-09-19T08:49:34;100048.84;;;11.31;100.00
25658;BME280;13517;59.320;18.042;2022-09-19T08:54:50;100058.16;;;11.27;100.00
25658;BME280;13517;59.320;18.042;2022-09-19T08:57:25;100047.22;;;11.28;100.00
25658;BME280;13517;59.320;18.042;2022-09-19T09:00:00;100055.56;;;11.25;100.00
25658;BME280;13517;59.320;18.042;2022-09-19T09:04:57;100040.22;;;11.37;100.00
25658;BME280;13517;59.320;18.042;2022-09-19T09:07:40;100053.75;;;11.49;100.00
25658;BME280;13517;59.320;18.042;2022-09-19T09:15:35;100053.84;;;11.24;100.00
25658;BME280;13517;59.320;18.042;2022-09-19T09:23:38;100082.59;;;10.78;100.00
25658;BME280;13517;59.320;18.042;2022-09-19T09:31:15;100087.50;;;10.48;100.00
25658;BME280;13517;59.320;18.042;2022-09-19T09:34:03;100074.03;;;10.35;100.00
25658;BME280;13517;59.320;18.042;2022-09-19T09:36:38;100085.28;;;10.42;100.00
25658;BME280;13517;59.320;18.042;2022-09-19T09:39:27;100107.25;;;10.49;100.00
25658;BME280;13517;59.320;18.042;2022-09-19T09:42:00;100056.66;;;10.27;100.00
25658;BME280;13517;59.320;18.042;2022-09-19T10:01:51;100088.81;;;10.67;100.00
25658;BME280;13517;59.320;18.042;2022-09-19T10:04:44;100103.41;;;10.65;100.00
25658;BME280;13517;59.320;18.042;2022-09-19T10:07:25;100112.78;;;10.72;100.00
25658;BME280;13517;59.320;18.042;2022-09-19T10:10:01;100097.66;;;10.69;100.00
25658;BME280;13517;59.320;18.042;2022-09-19T10:12:31;100111.94;;;10.71;100.00
25658;BME280;13517;59.320;18.042;2022-09-19T10:15:00;100115.25;;;10.75;100.00
25658;BME280;13517;59.320;18.042;2022-09-19T10:17:31;100100.53;;;10.79;100.00
25658;BME280;13517;59.320;18.042;2022-09-19T10:20:02;100110.78;;;10.98;100.00
25658;BME280;13517;59.320;18.042;2022-09-19T10:22:28;100096.59;;;11.08;100.00
25658;BME280;13517;59.320;18.042;2022-09-19T10:24:56;100109.41;;;11.28;100.00
25658;BME280;13517;59.320;18.042;2022-09-19T10:27:28;100126.00;;;11.35;100.00
25658;BME280;13517;59.320;18.042;2022-09-19T10:30:18;100106.88;;;11.38;100.00
25658;BME280;13517;59.320;18.042;2022-09-19T10:32:46;100113.03;;;11.52;100.00
25658;BME280;13517;59.320;18.042;2022-09-19T10:37:59;100120.84;;;11.32;100.00
25658;BME280;13517;59.320;18.042;2022-09-19T10:40:26;100104.53;;;10.98;100.00
25658;BME280;13517;59.320;18.042;2022-09-19T10:42:54;100115.09;;;10.65;100.00
25658;BME280;13517;59.320;18.042;2022-09-19T10:45:27;100136.69;;;10.65;100.00
25658;BME280;13517;59.320;18.042;2022-09-19T10:47:56;100106.19;;;10.52;100.00
25658;BME280;13517;59.320;18.042;2022-09-19T10:50:23;100124.19;;;10.64;100.00
25658;BME280;13517;59.320;18.042;2022-09-19T10:52:49;100126.19;;;10.73;100.00
25658;BME280;13517;59.320;18.042;2022-09-19T10:55:19;100117.34;;;10.71;100.00
25658;BME280;13517;59.320;18.042;2022-09-19T10:57:56;100131.47;;;10.99;100.00
25658;BME280;13517;59.320;18.042;2022-09-19T11:00:25;100131.75;;;11.19;100.00
25658;BME280;13517;59.320;18.042;2022-09-19T11:03:04;100120.31;;;11.15;100.00
25658;BME280;13517;59.320;18.042;2022-09-19T11:05:33;100133.50;;;11.31;100.00
25658;BME280;13517;59.320;18.042;2022-09-19T11:08:00;100140.41;;;11.47;100.00
25658;BME280;13517;59.320;18.042;2022-09-19T11:10:30;100143.00;;;11.49;100.00
25658;BME280;13517;59.320;18.042;2022-09-19T11:13:19;100130.06;;;11.29;100.00
25658;BME280;13517;59.320;18.042;2022-09-19T11:24:11;100130.94;;;11.41;100.00
25658;BME280;13517;59.320;18.042;2022-09-19T11:27:09;100137.66;;;11.24;100.00
25658;BME280;13517;59.320;18.042;2022-09-19T11:29:54;100161.47;;;11.19;100.00
25658;BME280;13517;59.320;18.042;2022-09-19T11:35:27;100153.63;;;11.16;100.00
25658;BME280;13517;59.320;18.042;2022-09-19T11:38:07;100159.19;;;11.26;100.00
25658;BME280;13517;59.320;18.042;2022-09-19T11:41:00;100165.75;;;11.46;100.00
25658;BME280;13517;59.320;18.042;2022-09-19T12:00:23;100156.22;;;11.17;100.00
25658;BME280;13517;59.320;18.042;2022-09-19T12:08:59;100191.84;;;11.58;100.00
25658;BME280;13517;59.320;18.042;2022-09-19T12:11:58;100177.06;;;11.51;100.00
25658;BME280;13517;59.320;18.042;2022-09-19T12:14:31;100161.22;;;11.47;100.00
25658;BME280;13517;59.320;18.042;2022-09-19T12:17:04;100179.78;;;11.51;100.00
25658;BME280;13517;59.320;18.042;2022-09-19T12:19:36;100191.78;;;11.36;100.00
25658;BME280;13517;59.320;18.042;2022-09-19T12:22:13;100187.31;;;11.23;100.00
25658;BME280;13517;59.320;18.042;2022-09-19T12:25:01;100187.84;;;11.04;100.00
25658;BME280;13517;59.320;18.042;2022-09-19T12:30:04;100199.31;;;11.08;100.00
25658;BME280;13517;59.320;18.042;2022-09-19T12:32:55;100192.81;;;11.10;100.00
25658;BME280;13517;59.320;18.042;2022-09-19T12:38:26;100211.13;;;11.18;100.00
25658;BME280;13517;59.320;18.042;2022-09-19T12:41:15;100192.47;;;11.26;100.00
25658;BME280;13517;59.320;18.042;2022-09-19T12:46:57;100207.19;;;11.58;100.00
25658;BME280;13517;59.320;18.042;2022-09-19T12:49:55;100202.56;;;11.71;100.00
25658;BME280;13517;59.320;18.042;2022-09-19T12:52:33;100214.91;;;11.87;100.00
25658;BME280;13517;59.320;18.042;2022-09-19T12:55:18;100203.94;;;11.89;100.00
25658;BME280;13517;59.320;18.042;2022-09-19T12:58:36;100219.34;;;11.99;100.00
25658;BME280;13517;59.320;18.042;2022-09-19T13:00:44;100202.97;;;11.78;100.00
25658;BME280;13517;59.320;18.042;2022-09-19T13:03:37;100224.31;;;11.58;100.00
25658;BME280;13517;59.320;18.042;2022-09-19T13:06:11;100232.34;;;11.36;100.00
25658;BME280;13517;59.320;18.042;2022-09-19T13:08:47;100237.34;;;11.29;100.00
25658;BME280;13517;59.320;18.042;2022-09-19T13:11:40;100192.34;;;11.16;100.00
25658;BME280;13517;59.320;18.042;2022-09-19T13:16:41;100213.72;;;11.20;100.00
25658;BME280;13517;59.320;18.042;2022-09-19T13:19:38;100224.06;;;11.26;100.00
25658;BME280;13517;59.320;18.042;2022-09-19T13:22:25;100227.94;;;11.35;100.00
25658;BME280;13517;59.320;18.042;2022-09-19T13:25:28;100268.75;;;11.43;100.00
25658;BME280;13517;59.320;18.042;2022-09-19T13:30:49;100246.63;;;11.13;100.00
25658;BME280;13517;59.320;18.042;2022-09-19T13:33:27;100214.25;;;10.76;100.00
25658;BME280;13517;59.320;18.042;2022-09-19T13:36:11;100252.75;;;10.91;100.00
25658;BME280;13517;59.320;18.042;2022-09-19T13:38:48;100259.28;;;10.88;100.00
25658;BME280;13517;59.320;18.042;2022-09-19T13:52:01;100260.94;;;10.65;100.00
25658;BME280;13517;59.320;18.042;2022-09-19T13:54:35;100235.75;;;10.65;100.00
25658;BME280;13517;59.320;18.042;2022-09-19T13:57:10;100259.94;;;10.79;100.00
25658;BME280;13517;59.320;18.042;2022-09-19T13:59:38;100254.41;;;10.81;100.00
25658;BME280;13517;59.320;18.042;2022-09-19T14:04:44;100266.41;;;10.76;100.00
25658;BME280;13517;59.320;18.042;2022-09-19T14:09:57;100254.47;;;10.68;100.00
25658;BME280;13517;59.320;18.042;2022-09-19T14:20:52;100289.25;;;10.72;100.00
25658;BME280;13517;59.320;18.042;2022-09-19T14:23:19;100295.84;;;10.68;100.00
25658;BME280;13517;59.320;18.042;2022-09-19T14:25:55;100284.19;;;10.68;100.00
25658;BME280;13517;59.320;18.042;2022-09-19T14:36:42;100273.03;;;10.72;100.00
25658;BME280;13517;59.320;18.042;2022-09-19T14:48:01;100272.28;;;10.70;100.00
25658;BME280;13517;59.320;18.042;2022-09-19T14:50:36;100294.41;;;10.75;100.00
25658;BME280;13517;59.320;18.042;2022-09-19T14:53:07;100304.47;;;10.73;100.00
25658;BME280;13517;59.320;18.042;2022-09-19T14:55:46;100263.84;;;10.62;100.00
25658;BME280;13517;59.320;18.042;2022-09-19T14:58:30;100291.94;;;10.72;100.00
25658;BME280;13517;59.320;18.042;2022-09-19T15:03:46;100290.50;;;10.42;100.00
25658;BME280;13517;59.320;18.042;2022-09-19T15:06:44;100307.00;;;10.51;100.00
25658;BME280;13517;59.320;18.042;2022-09-19T15:09:19;100288.28;;;10.47;100.00
25658;BME280;13517;59.320;18.042;2022-09-19T15:11:50;100314.53;;;10.58;100.00
25658;BME280;13517;59.320;18.042;2022-09-19T15:14:16;100287.03;;;10.53;100.00
25658;BME280;13517;59.320;18.042;2022-09-19T15:16:41;100246.47;;;10.40;100.00
25658;BME280;13517;59.320;18.042;2022-09-19T15:19:08;100298.53;;;10.68;100.00
25658;BME280;13517;59.320;18.042;2022-09-19T15:21:35;100272.31;;;10.57;100.00
25658;BME280;13517;59.320;18.042;2022-09-19T15:24:02;100286.09;;;10.66;100.00
25658;BME280;13517;59.320;18.042;2022-09-19T15:26:36;100294.78;;;10.58;100.00
25658;BME280;13517;59.320;18.042;2022-09-19T15:29:23;100304.59;;;10.59;100.00
25658;BME280;13517;59.320;18.042;2022-09-19T15:32:27;100305.34;;;10.61;100.00
25658;BME280;13517;59.320;18.042;2022-09-19T15:35:06;100290.38;;;10.57;100.00
25658;BME280;13517;59.320;18.042;2022-09-19T15:37:37;100303.00;;;10.56;100.00
25658;BME280;13517;59.320;18.042;2022-09-19T15:40:06;100300.50;;;10.66;100.00
25658;BME280;13517;59.320;18.042;2022-09-19T15:42:35;100307.50;;;10.69;100.00
25658;BME280;13517;59.320;18.042;2022-09-19T15:48:18;100314.66;;;10.57;100.00
25658;BME280;13517;59.320;18.042;2022-09-19T15:50:55;100296.31;;;10.49;100.00
25658;BME280;13517;59.320;18.042;2022-09-19T15:53:44;100323.28;;;10.62;100.00
25658;BME280;13517;59.320;18.042;2022-09-19T15:56:11;100328.16;;;10.57;100.00
25658;BME280;13517;59.320;18.042;2022-09-19T15:58:46;100322.88;;;10.55;100.00